TAF and METAR

METAR for Shiraz International Airport

OISS 311100Z 23008KT 9999 SCT035TCU 37/M03 Q1015 A2998
Report created 31. mai 13:00
wind 8 knots from SW (230°) visibility > 10km scattered clouds (~50% cover) at 3500 feet of type towering cumulus Temperature 37° with dewpoint at -3° (Humidity 7.83%) Pressure 1015 hPa

TAF for Shiraz International Airport

TAF OISS 311130Z 3112/0118 34008KT 8000 FEW040 TEMPO 3112/3115 27016KT FEW035CB SCT040 SCT100
Report created 31. mai 13:30

between 31. mai 14:00 - 1. mai 20:00

wind 8 knots from NNW (340°) visibility 8000 meters some clouds (~25% cover) at 4000 feet

temporarily between 31. mai 14:00 - 31. mai 17:00

wind 16 knots from W (270°) some clouds (~25% cover) at 3500 feet of type cumulonimbus scattered clouds (~50% cover) at 4000 feet scattered clouds (~50% cover) at 10000 feet
Shiraz International Airport in Iran at 1491m

Latest 5 airports